createdAt,value
2023-01-27T00:01:18.935Z,22.45
2023-01-27T00:03:46.986Z,23.05
2023-01-27T00:06:15.533Z,21.48
2023-01-27T00:08:44.901Z,23.58
2023-01-27T00:11:32.206Z,22.45
2023-01-27T00:14:02.373Z,24.85
2023-01-27T00:16:34.273Z,24.63
2023-01-27T00:19:05.984Z,28.20
2023-01-27T00:21:52.389Z,22.02
2023-01-27T00:24:38.404Z,19.67
2023-01-27T00:27:10.211Z,20.75
2023-01-27T00:29:41.393Z,19.02
2023-01-27T00:32:29.187Z,20.08
2023-01-27T00:34:57.259Z,20.35
2023-01-27T00:37:25.474Z,21.98
2023-01-27T00:39:53.303Z,22.90
2023-01-27T00:42:21.944Z,23.73
2023-01-27T00:45:12.915Z,23.45
2023-01-27T00:47:51.355Z,19.40
2023-01-27T00:50:20.824Z,20.40
2023-01-27T00:52:49.520Z,22.05
2023-01-27T00:55:21.098Z,20.20
2023-01-27T00:57:48.755Z,21.27
2023-01-27T01:00:32.104Z,21.80
2023-01-27T01:03:06.886Z,20.90
2023-01-27T01:05:38.093Z,21.67
2023-01-27T01:08:10.341Z,21.15
2023-01-27T01:11:25.118Z,21.58
2023-01-27T01:14:00.141Z,21.13
2023-01-27T01:19:34.455Z,19.87
2023-01-27T01:23:05.301Z,19.23
2023-01-27T01:25:46.913Z,20.00
2023-01-27T01:31:15.388Z,17.88
2023-01-27T01:33:43.984Z,18.27
2023-01-27T01:36:20.602Z,20.02
2023-01-27T01:38:49.367Z,20.02
2023-01-27T01:41:28.294Z,19.95
2023-01-27T01:44:01.446Z,17.48
2023-01-27T01:46:30.224Z,20.55
2023-01-27T01:49:03.762Z,20.45
2023-01-27T01:51:45.553Z,21.25
2023-01-27T01:54:26.067Z,24.27
2023-01-27T01:57:33.486Z,25.05
2023-01-27T02:00:08.247Z,26.08
2023-01-27T02:02:44.063Z,28.20
2023-01-27T02:05:33.849Z,27.70
2023-01-27T02:08:11.081Z,24.90
2023-01-27T02:10:40.606Z,27.30
2023-01-27T02:13:08.962Z,28.50
2023-01-27T02:15:36.824Z,27.73
2023-01-27T02:18:10.640Z,26.75
2023-01-27T02:20:48.326Z,28.67
2023-01-27T02:23:55.345Z,27.55
2023-01-27T02:26:35.382Z,23.95
2023-01-27T02:29:10.095Z,24.63
2023-01-27T02:31:39.972Z,25.95
2023-01-27T02:34:15.094Z,25.92
2023-01-27T02:36:48.109Z,24.40
2023-01-27T02:39:20.228Z,20.17
2023-01-27T02:41:52.030Z,20.85
2023-01-27T02:44:22.005Z,22.45
2023-01-27T02:46:53.804Z,21.88
2023-01-27T02:49:22.960Z,22.52
2023-01-27T02:51:52.123Z,22.58
2023-01-27T02:54:21.219Z,20.67
2023-01-27T02:56:53.788Z,21.40
2023-01-27T02:59:23.282Z,27.25
2023-01-27T03:01:50.624Z,36.00
2023-01-27T03:04:18.514Z,23.33
2023-01-27T03:06:45.664Z,20.33
2023-01-27T03:09:13.764Z,18.75
2023-01-27T03:12:00.488Z,21.05
2023-01-27T03:14:49.205Z,19.30
2023-01-27T03:17:36.104Z,19.48
2023-01-27T03:20:07.620Z,20.27
2023-01-27T03:22:37.879Z,20.48
2023-01-27T03:25:06.993Z,21.02
2023-01-27T03:27:36.064Z,20.67
2023-01-27T03:30:31.203Z,18.75
2023-01-27T03:33:09.573Z,20.00
2023-01-27T03:36:20.270Z,22.65
2023-01-27T03:39:10.148Z,18.85
2023-01-27T03:41:56.441Z,19.42
2023-01-27T03:44:45.660Z,20.65
2023-01-27T03:47:17.006Z,19.40
2023-01-27T03:49:48.819Z,18.40
2023-01-27T03:52:16.627Z,18.30
2023-01-27T03:54:45.753Z,23.25
2023-01-27T03:57:19.070Z,19.60
2023-01-27T03:59:47.726Z,19.52
2023-01-27T04:02:37.822Z,20.33
2023-01-27T04:05:24.171Z,18.30
2023-01-27T04:07:52.814Z,17.27
2023-01-27T04:10:21.171Z,17.45
2023-01-27T04:12:50.296Z,15.98
2023-01-27T04:15:21.872Z,17.05
2023-01-27T04:17:52.783Z,17.88
2023-01-27T04:20:24.671Z,18.17
2023-01-27T04:22:55.192Z,17.53
2023-01-27T04:25:22.971Z,17.00
2023-01-27T04:27:55.424Z,17.67
2023-01-27T04:30:25.043Z,19.70
2023-01-27T04:32:54.180Z,20.00
2023-01-27T04:35:27.744Z,17.85
2023-01-27T04:37:55.492Z,19.60
2023-01-27T04:40:23.108Z,17.45
2023-01-27T04:42:55.046Z,17.77
2023-01-27T04:45:25.583Z,18.30
2023-01-27T04:47:57.341Z,18.50
2023-01-27T04:50:30.050Z,18.77
2023-01-27T04:52:59.088Z,18.25
2023-01-27T04:55:33.606Z,15.68
2023-01-27T04:58:01.945Z,16.42
2023-01-27T05:00:30.222Z,16.58
2023-01-27T05:03:04.887Z,16.98
2023-01-27T05:05:35.613Z,19.00
2023-01-27T05:08:08.175Z,19.15
2023-01-27T05:10:36.764Z,19.20
2023-01-27T05:13:04.508Z,16.27
2023-01-27T05:15:34.043Z,16.73
2023-01-27T05:18:02.025Z,16.55
2023-01-27T05:20:31.868Z,17.33
2023-01-27T05:23:18.966Z,18.50
2023-01-27T05:25:49.222Z,16.63
2023-01-27T05:28:17.176Z,17.00
2023-01-27T05:30:44.399Z,17.70
2023-01-27T05:33:11.869Z,17.17
2023-01-27T05:35:40.315Z,13.23
2023-01-27T05:38:09.099Z,21.25
2023-01-27T05:40:36.588Z,15.35
2023-01-27T05:43:06.826Z,20.85
2023-01-27T05:45:39.277Z,14.00
2023-01-27T05:48:33.990Z,16.50
2023-01-27T05:51:04.870Z,18.73
2023-01-27T05:53:33.996Z,18.13
2023-01-27T05:56:05.134Z,18.25
2023-01-27T05:58:33.426Z,17.40
2023-01-27T06:01:12.890Z,16.98
2023-01-27T06:03:45.992Z,17.33
2023-01-27T06:06:18.408Z,20.23
2023-01-27T06:08:50.423Z,29.17
2023-01-27T06:11:21.491Z,33.38
2023-01-27T06:13:51.772Z,26.27
2023-01-27T06:16:21.773Z,25.70
2023-01-27T06:18:51.446Z,23.80
2023-01-27T06:21:21.208Z,24.20
2023-01-27T06:23:56.221Z,22.10
2023-01-27T06:26:26.451Z,20.92
2023-01-27T06:29:00.241Z,22.02
2023-01-27T06:31:28.583Z,22.65
2023-01-27T06:33:57.284Z,23.35
2023-01-27T06:36:24.763Z,24.75
2023-01-27T06:38:52.458Z,21.83
2023-01-27T06:41:21.230Z,22.45
2023-01-27T06:43:53.403Z,25.77
2023-01-27T06:46:22.054Z,25.73
2023-01-27T06:48:49.598Z,27.67
2023-01-27T06:51:17.858Z,30.50
2023-01-27T06:53:46.824Z,27.67
2023-01-27T06:56:16.518Z,26.75
2023-01-27T06:58:45.976Z,30.13
2023-01-27T07:01:13.246Z,28.85
2023-01-27T07:03:43.526Z,28.65
2023-01-27T07:06:15.192Z,29.73
2023-01-27T07:08:45.853Z,28.98
2023-01-27T07:11:18.055Z,27.13
2023-01-27T07:13:45.685Z,25.13
2023-01-27T07:16:12.900Z,25.58
2023-01-27T07:18:40.394Z,28.88
2023-01-27T07:21:09.844Z,29.40
2023-01-27T07:23:37.519Z,26.13
2023-01-27T07:26:12.511Z,25.35
2023-01-27T07:28:46.847Z,26.73
2023-01-27T07:31:14.086Z,26.85
2023-01-27T07:33:41.664Z,26.55
2023-01-27T07:36:09.236Z,27.35
2023-01-27T07:38:36.724Z,28.90
2023-01-27T07:41:07.583Z,26.42
2023-01-27T07:43:35.267Z,28.17
2023-01-27T07:46:08.454Z,29.83
2023-01-27T07:48:35.973Z,31.60
2023-01-27T07:51:03.336Z,30.48
2023-01-27T07:53:34.436Z,28.20
2023-01-27T07:56:02.640Z,27.33
2023-01-27T07:58:30.125Z,26.08
2023-01-27T08:00:57.664Z,27.02
2023-01-27T08:03:27.558Z,26.48
2023-01-27T08:05:54.822Z,28.98
2023-01-27T08:08:22.281Z,24.98
2023-01-27T08:10:51.506Z,22.92
2023-01-27T08:13:19.111Z,23.02
2023-01-27T08:15:46.434Z,22.73
2023-01-27T08:18:13.938Z,21.25
2023-01-27T08:20:41.964Z,25.63
2023-01-27T08:23:09.729Z,31.92
2023-01-27T08:25:37.314Z,33.22
2023-01-27T08:28:05.024Z,24.33
2023-01-27T08:30:32.273Z,22.42
2023-01-27T08:32:59.959Z,22.42
2023-01-27T08:35:27.164Z,24.80
2023-01-27T08:37:54.772Z,25.58
2023-01-27T08:40:22.384Z,25.92
2023-01-27T08:42:51.055Z,27.95
2023-01-27T08:45:18.411Z,35.58
2023-01-27T08:47:45.931Z,25.48
2023-01-27T08:50:13.552Z,26.80
2023-01-27T08:52:41.203Z,26.73
2023-01-27T08:55:08.571Z,28.35
2023-01-27T08:57:37.059Z,22.88
2023-01-27T09:00:09.266Z,30.23
2023-01-27T09:02:36.961Z,27.73
2023-01-27T09:05:04.909Z,22.88
2023-01-27T09:07:33.414Z,27.63
2023-01-27T09:10:13.548Z,26.35
2023-01-27T09:12:43.918Z,22.33
2023-01-27T09:15:15.109Z,23.65
2023-01-27T09:17:42.777Z,22.13
2023-01-27T09:20:11.492Z,22.83
2023-01-27T09:22:58.428Z,25.95
2023-01-27T09:25:26.476Z,25.15
2023-01-27T09:27:55.746Z,25.02
2023-01-27T09:30:25.233Z,27.67
2023-01-27T09:32:52.874Z,27.80
2023-01-27T09:35:20.139Z,27.02
2023-01-27T09:37:58.083Z,26.20
2023-01-27T09:40:30.772Z,25.42
2023-01-27T09:43:10.784Z,26.35
2023-01-27T09:46:04.467Z,25.50
2023-01-27T09:49:18.054Z,24.08
2023-01-27T09:51:51.323Z,27.38
2023-01-27T09:54:54.605Z,28.20
2023-01-27T09:57:31.001Z,28.13
2023-01-27T10:03:01.008Z,25.47
2023-01-27T10:05:47.689Z,30.20
2023-01-27T10:08:21.736Z,27.90
2023-01-27T10:11:06.753Z,27.88
2023-01-27T10:13:35.006Z,29.85
2023-01-27T10:16:14.553Z,23.77
2023-01-27T10:19:02.010Z,27.50
2023-01-27T10:21:32.446Z,23.90
2023-01-27T10:24:57.246Z,25.88
2023-01-27T10:27:27.210Z,26.05
2023-01-27T10:30:04.755Z,24.88
2023-01-27T10:32:50.705Z,26.45
2023-01-27T10:35:21.229Z,28.70
2023-01-27T10:38:03.935Z,27.75
2023-01-27T10:40:36.737Z,26.88
2023-01-27T10:43:25.703Z,28.13
2023-01-27T10:46:04.350Z,30.52
2023-01-27T10:49:10.572Z,24.17
2023-01-27T10:54:16.175Z,25.88
2023-01-27T10:56:51.826Z,29.30
2023-01-27T10:59:38.392Z,29.02
2023-01-27T11:02:20.269Z,25.17
2023-01-27T11:04:56.026Z,24.58
2023-01-27T11:10:06.164Z,23.67
2023-01-27T11:12:36.846Z,22.38
2023-01-27T11:15:33.856Z,22.90
2023-01-27T11:18:20.654Z,29.02
2023-01-27T11:20:54.583Z,23.98
2023-01-27T11:23:26.604Z,25.55
2023-01-27T11:26:00.285Z,26.55
2023-01-27T11:28:49.929Z,24.50
2023-01-27T11:31:38.212Z,25.40
2023-01-27T11:34:47.667Z,24.90
2023-01-27T11:37:37.569Z,25.52
2023-01-27T11:40:21.980Z,27.15
2023-01-27T11:42:51.821Z,26.27
2023-01-27T11:45:21.148Z,28.98
2023-01-27T11:47:53.531Z,28.38
2023-01-27T11:50:24.809Z,32.75
2023-01-27T11:53:10.391Z,29.15
2023-01-27T11:55:42.643Z,31.20
2023-01-27T11:58:27.409Z,27.70
2023-01-27T12:00:59.429Z,32.22
2023-01-27T12:03:30.957Z,28.00
2023-01-27T12:06:04.559Z,30.63
2023-01-27T12:11:23.283Z,32.55
2023-01-27T12:13:54.003Z,32.90
2023-01-27T12:16:23.169Z,31.55
2023-01-27T12:19:02.946Z,33.45
2023-01-27T12:21:47.184Z,36.45
2023-01-27T12:24:46.161Z,37.30
2023-01-27T12:27:26.215Z,37.70
2023-01-27T12:30:07.200Z,42.92
2023-01-27T12:32:44.200Z,41.38
2023-01-27T12:35:34.761Z,33.55
2023-01-27T12:38:04.495Z,32.78
2023-01-27T12:40:33.981Z,33.35
2023-01-27T12:43:11.388Z,34.58
2023-01-27T12:45:41.002Z,33.97
2023-01-27T12:48:17.911Z,37.53
2023-01-27T12:50:52.759Z,38.30
2023-01-27T12:53:40.039Z,31.33
2023-01-27T12:56:08.503Z,33.13
2023-01-27T12:58:44.277Z,35.42
2023-01-27T13:01:21.161Z,34.55
2023-01-27T13:04:13.719Z,34.30
2023-01-27T13:06:44.493Z,31.27
2023-01-27T13:09:53.382Z,35.47
2023-01-27T13:12:29.914Z,31.85
2023-01-27T13:15:05.430Z,31.13
2023-01-27T13:17:43.668Z,37.30
2023-01-27T13:20:21.783Z,36.47
2023-01-27T13:23:26.867Z,39.60
2023-01-27T13:26:16.259Z,43.42
2023-01-27T13:28:56.059Z,48.80
2023-01-27T13:31:54.433Z,42.10
2023-01-27T13:34:40.262Z,36.78
2023-01-27T13:37:13.659Z,40.28
2023-01-27T13:39:55.192Z,41.73
2023-01-27T13:42:46.732Z,36.25
2023-01-27T13:45:46.778Z,30.02
2023-01-27T13:48:14.330Z,34.08
2023-01-27T13:50:44.979Z,35.33
2023-01-27T13:53:15.214Z,40.58
2023-01-27T13:56:01.187Z,38.50
2023-01-27T13:58:56.934Z,39.13
2023-01-27T14:02:13.180Z,40.22
2023-01-27T14:07:39.428Z,38.13
2023-01-27T14:10:27.373Z,36.50
2023-01-27T14:13:14.920Z,40.15
2023-01-27T14:16:02.992Z,41.15
2023-01-27T14:19:05.043Z,41.33
2023-01-27T14:21:50.187Z,41.40
2023-01-27T14:24:41.496Z,49.42
2023-01-27T14:27:14.765Z,41.67
2023-01-27T14:29:47.474Z,43.45
2023-01-27T14:32:35.061Z,41.88
2023-01-27T14:35:23.931Z,35.83
2023-01-27T14:38:11.255Z,40.28
2023-01-27T14:41:14.520Z,50.72
2023-01-27T14:44:18.540Z,37.85
2023-01-27T14:47:21.425Z,37.67
2023-01-27T14:50:22.777Z,38.80
2023-01-27T14:53:26.935Z,42.78
2023-01-27T14:56:17.141Z,42.53
2023-01-27T14:58:51.099Z,42.35
2023-01-27T15:01:52.070Z,42.90
2023-01-27T15:04:52.964Z,41.00
2023-01-27T15:07:54.899Z,34.03
2023-01-27T15:10:25.537Z,39.47
2023-01-27T15:13:01.980Z,35.30
2023-01-27T15:16:00.215Z,32.75
2023-01-27T15:18:30.592Z,33.28
2023-01-27T15:21:20.181Z,34.05
2023-01-27T15:24:13.584Z,31.55
2023-01-27T15:26:42.055Z,32.95
2023-01-27T15:29:14.827Z,31.95
2023-01-27T15:31:43.256Z,35.45
2023-01-27T15:34:22.680Z,35.97
2023-01-27T15:37:24.180Z,36.20
2023-01-27T15:40:11.889Z,35.20
2023-01-27T15:42:47.748Z,30.67
2023-01-27T15:45:39.312Z,31.05
2023-01-27T15:48:23.027Z,29.80
2023-01-27T15:51:01.349Z,31.60
2023-01-27T15:53:33.877Z,29.20
2023-01-27T15:56:02.554Z,31.13
2023-01-27T15:58:37.984Z,28.65
2023-01-27T16:01:08.957Z,30.45
2023-01-27T16:03:46.381Z,30.58
2023-01-27T16:06:24.842Z,30.23
2023-01-27T16:09:02.709Z,26.48
2023-01-27T16:11:29.946Z,27.90
2023-01-27T16:14:17.148Z,29.58
2023-01-27T16:16:51.228Z,30.73
2023-01-27T16:19:44.550Z,32.08
2023-01-27T16:22:19.683Z,36.05
2023-01-27T16:24:56.849Z,29.75
2023-01-27T16:28:02.111Z,30.33
2023-01-27T16:30:40.136Z,28.95
2023-01-27T16:33:18.066Z,29.55
2023-01-27T16:35:52.230Z,32.63
2023-01-27T16:38:36.942Z,32.85
2023-01-27T16:41:19.775Z,29.85
2023-01-27T16:44:04.583Z,40.03
2023-01-27T16:46:48.627Z,40.47
2023-01-27T16:49:27.674Z,35.83
2023-01-27T16:52:01.619Z,35.33
2023-01-27T16:54:43.339Z,37.22
2023-01-27T16:57:33.511Z,34.38
2023-01-27T17:00:24.984Z,38.15
2023-01-27T17:02:57.834Z,28.63
2023-01-27T17:05:26.665Z,27.38
2023-01-27T17:08:17.233Z,29.13
2023-01-27T17:11:05.993Z,27.73
2023-01-27T17:13:37.590Z,26.60
2023-01-27T17:16:07.767Z,28.20
2023-01-27T17:18:51.867Z,26.27
2023-01-27T17:21:50.181Z,27.92
2023-01-27T17:24:44.256Z,28.77
2023-01-27T17:27:37.992Z,29.13
2023-01-27T17:30:15.349Z,28.67
2023-01-27T17:32:48.109Z,28.95
2023-01-27T17:35:37.156Z,25.20
2023-01-27T17:38:15.830Z,23.55
2023-01-27T17:40:46.228Z,25.83
2023-01-27T17:43:33.192Z,27.05
2023-01-27T17:46:06.241Z,28.40
2023-01-27T17:48:35.959Z,24.85
2023-01-27T17:51:04.545Z,34.30
2023-01-27T17:53:35.912Z,32.05
2023-01-27T17:56:20.510Z,26.70
2023-01-27T17:58:53.399Z,25.30
2023-01-27T18:01:22.464Z,31.27
2023-01-27T18:03:59.960Z,27.95
2023-01-27T18:06:30.859Z,23.35
2023-01-27T18:09:15.575Z,22.38
2023-01-27T18:12:07.287Z,27.58
2023-01-27T18:14:35.829Z,30.20
2023-01-27T18:17:26.025Z,27.90
2023-01-27T18:19:59.561Z,29.73
2023-01-27T18:22:29.538Z,29.87
2023-01-27T18:25:01.855Z,29.13
2023-01-27T18:27:38.419Z,32.50
2023-01-27T18:30:20.960Z,31.90
2023-01-27T18:32:52.442Z,31.17
2023-01-27T18:35:29.454Z,31.40
2023-01-27T18:38:01.837Z,31.30
2023-01-27T18:40:33.226Z,36.75
2023-01-27T18:43:04.358Z,36.78
2023-01-27T18:45:33.785Z,39.42
2023-01-27T18:48:09.722Z,38.88
2023-01-27T18:50:46.246Z,68.72
2023-01-27T18:53:17.519Z,39.03
2023-01-27T18:55:48.337Z,34.90
2023-01-27T18:58:19.353Z,39.17
2023-01-27T19:00:54.573Z,40.33
2023-01-27T19:03:26.966Z,37.95
2023-01-27T19:05:55.465Z,37.60
2023-01-27T19:08:27.085Z,36.15
2023-01-27T19:10:58.323Z,34.85
2023-01-27T19:13:28.111Z,33.38
2023-01-27T19:15:57.912Z,31.15
2023-01-27T19:18:33.456Z,28.30
2023-01-27T19:21:06.547Z,33.05
2023-01-27T19:23:38.375Z,36.40
2023-01-27T19:26:19.332Z,34.38
2023-01-27T19:28:56.736Z,37.07
2023-01-27T19:31:25.918Z,36.55
2023-01-27T19:33:56.886Z,34.78
2023-01-27T19:36:49.583Z,33.60
2023-01-27T19:39:22.180Z,37.13
2023-01-27T19:41:54.597Z,35.30
2023-01-27T19:44:24.164Z,38.17
2023-01-27T19:47:05.806Z,38.15
2023-01-27T19:49:34.178Z,41.25
2023-01-27T19:52:03.162Z,36.10
2023-01-27T19:54:32.781Z,35.13
2023-01-27T19:57:01.996Z,37.78
2023-01-27T19:59:31.295Z,35.47
2023-01-27T20:02:00.455Z,32.38
2023-01-27T20:04:31.105Z,35.65
2023-01-27T20:07:04.236Z,33.80
2023-01-27T20:09:36.645Z,32.53
2023-01-27T20:12:06.897Z,33.13
2023-01-27T20:14:37.347Z,32.45
2023-01-27T20:17:05.400Z,33.13
2023-01-27T20:19:35.682Z,32.10
2023-01-27T20:22:03.117Z,39.00
2023-01-27T20:24:30.686Z,39.88
2023-01-27T20:26:58.745Z,37.45
2023-01-27T20:29:27.062Z,36.55
2023-01-27T20:31:54.244Z,34.28
2023-01-27T20:34:24.260Z,37.13
2023-01-27T20:36:51.948Z,33.53
2023-01-27T20:39:20.499Z,35.67
2023-01-27T20:41:52.285Z,33.97
2023-01-27T20:44:20.973Z,33.85
2023-01-27T20:46:49.160Z,35.40
2023-01-27T20:49:16.763Z,34.40
2023-01-27T20:51:45.159Z,35.40
2023-01-27T20:54:13.481Z,35.38
2023-01-27T20:56:42.076Z,36.45
2023-01-27T20:59:09.881Z,33.13
2023-01-27T21:01:40.813Z,36.80
2023-01-27T21:04:10.661Z,35.47
2023-01-27T21:06:42.098Z,37.50
2023-01-27T21:09:14.508Z,35.67
2023-01-27T21:11:43.673Z,34.72
2023-01-27T21:14:19.387Z,37.28
2023-01-27T21:16:48.819Z,34.97
2023-01-27T21:19:19.609Z,35.45
2023-01-27T21:21:49.107Z,37.35
2023-01-27T21:24:19.336Z,39.53
2023-01-27T21:26:54.586Z,40.05
2023-01-27T21:29:25.553Z,37.20
2023-01-27T21:31:54.280Z,37.95
2023-01-27T21:34:24.000Z,38.67
2023-01-27T21:36:56.034Z,36.50
2023-01-27T21:39:25.856Z,37.75
2023-01-27T21:41:57.174Z,36.85
2023-01-27T21:44:47.749Z,36.97
2023-01-27T21:47:19.460Z,35.38
2023-01-27T21:50:02.968Z,40.45
2023-01-27T21:52:39.571Z,36.50
2023-01-27T21:55:10.042Z,37.63
2023-01-27T21:57:38.966Z,33.53
2023-01-27T22:00:15.249Z,34.03
2023-01-27T22:02:43.812Z,31.73
2023-01-27T22:05:13.314Z,32.67
2023-01-27T22:07:41.860Z,31.50
2023-01-27T22:10:15.971Z,30.50
2023-01-27T22:15:16.217Z,28.88
2023-01-27T22:17:45.005Z,29.40
2023-01-27T22:20:16.808Z,28.65
2023-01-27T22:22:47.425Z,30.80
2023-01-27T22:25:17.575Z,28.05
2023-01-27T22:27:46.014Z,31.60
2023-01-27T22:30:17.074Z,33.15
2023-01-27T22:32:47.111Z,33.50
2023-01-27T22:35:16.725Z,31.27
2023-01-27T22:37:44.991Z,30.45
2023-01-27T22:40:13.941Z,29.38
2023-01-27T22:42:45.914Z,31.20
2023-01-27T22:45:14.845Z,31.33
2023-01-27T22:47:43.563Z,31.52
2023-01-27T22:50:12.836Z,29.20
2023-01-27T22:52:40.742Z,30.27
2023-01-27T22:55:11.806Z,31.98
2023-01-27T22:57:40.944Z,35.33
2023-01-27T23:00:12.763Z,29.10
2023-01-27T23:02:44.938Z,34.35
2023-01-27T23:05:18.344Z,29.27
2023-01-27T23:07:49.454Z,28.95
2023-01-27T23:10:18.238Z,30.50
2023-01-27T23:12:48.062Z,28.67
2023-01-27T23:15:18.784Z,28.77
2023-01-27T23:17:50.035Z,28.20
2023-01-27T23:20:19.499Z,29.80
2023-01-27T23:22:48.398Z,28.98
2023-01-27T23:25:17.980Z,29.45
2023-01-27T23:27:45.459Z,30.73
2023-01-27T23:30:13.489Z,29.92
2023-01-27T23:32:41.996Z,30.95
2023-01-27T23:35:15.459Z,28.42
2023-01-27T23:37:43.054Z,28.15
2023-01-27T23:40:14.188Z,28.70
2023-01-27T23:42:43.764Z,31.90
2023-01-27T23:45:11.710Z,30.77
2023-01-27T23:47:40.685Z,28.98
2023-01-27T23:50:09.205Z,28.38
2023-01-27T23:52:37.990Z,27.73
2023-01-27T23:55:08.972Z,27.67
2023-01-27T23:57:37.072Z,29.33
